createdAt,value
2023-01-29T00:01:25.013Z,-0.33
2023-01-29T00:03:27.745Z,-0.42
2023-01-29T00:05:30.585Z,-0.29
2023-01-29T00:07:33.303Z,-0.30
2023-01-29T00:09:36.017Z,-0.46
2023-01-29T00:11:40.400Z,-0.47
2023-01-29T00:13:43.613Z,-0.37
2023-01-29T00:15:55.347Z,-0.45
2023-01-29T00:17:58.046Z,-0.42
2023-01-29T00:20:00.686Z,-0.47
2023-01-29T00:22:03.724Z,-0.46
2023-01-29T00:24:06.796Z,-0.55
2023-01-29T00:26:10.224Z,-0.39
2023-01-29T00:28:14.684Z,-0.46
2023-01-29T00:30:19.781Z,-0.60
2023-01-29T00:32:22.831Z,-0.50
2023-01-29T00:34:25.650Z,-0.46
2023-01-29T00:36:28.959Z,-0.32
2023-01-29T00:38:31.807Z,-0.46
2023-01-29T00:40:55.412Z,-0.45
2023-01-29T00:43:15.482Z,-0.51
2023-01-29T00:45:18.729Z,-0.42
2023-01-29T00:47:33.304Z,-0.44
2023-01-29T00:49:36.059Z,-0.55
2023-01-29T00:51:39.809Z,-0.63
2023-01-29T00:53:42.452Z,-0.51
2023-01-29T00:55:46.018Z,-0.51
2023-01-29T00:57:48.903Z,-0.52
2023-01-29T00:59:51.685Z,-0.60
2023-01-29T01:02:13.364Z,-0.59
2023-01-29T01:04:16.312Z,-0.64
2023-01-29T01:06:18.911Z,-0.62
2023-01-29T01:08:39.417Z,-0.43
2023-01-29T01:10:42.119Z,-0.60
2023-01-29T01:12:45.054Z,-0.57
2023-01-29T01:14:47.951Z,-0.61
2023-01-29T01:16:50.701Z,-0.48
2023-01-29T01:18:54.718Z,-0.55
2023-01-29T01:20:59.560Z,-0.70
2023-01-29T01:23:02.269Z,-0.71
2023-01-29T01:25:05.502Z,-0.67
2023-01-29T01:27:08.467Z,-0.52
2023-01-29T01:29:11.163Z,-0.61
2023-01-29T01:31:15.544Z,-0.56
2023-01-29T01:33:18.457Z,-0.37
2023-01-29T01:35:22.507Z,-0.45
2023-01-29T01:37:25.135Z,-0.50
2023-01-29T01:39:27.935Z,-0.53
2023-01-29T01:41:30.844Z,-0.53
2023-01-29T01:43:49.232Z,-0.55
2023-01-29T01:45:51.887Z,-0.50
2023-01-29T01:47:59.959Z,-0.39
2023-01-29T01:50:08.747Z,-0.39
2023-01-29T01:52:15.209Z,-0.33
2023-01-29T01:54:22.443Z,-0.43
2023-01-29T01:56:28.981Z,-0.46
2023-01-29T01:58:35.847Z,-0.38
2023-01-29T02:00:39.997Z,-0.44
2023-01-29T02:03:03.282Z,-0.37
2023-01-29T02:05:24.244Z,-0.35
2023-01-29T02:07:45.939Z,-0.49
2023-01-29T02:09:53.512Z,-0.47
2023-01-29T02:11:56.990Z,-0.52
2023-01-29T02:14:00.331Z,-0.54
2023-01-29T02:16:02.986Z,-0.64
2023-01-29T02:18:06.137Z,-0.56
2023-01-29T02:20:15.804Z,-0.45
2023-01-29T02:23:03.614Z,-0.46
2023-01-29T02:25:19.265Z,-0.68
2023-01-29T02:27:25.469Z,-0.70
2023-01-29T02:29:37.744Z,-0.72
2023-01-29T02:31:46.010Z,-0.73
2023-01-29T02:33:57.181Z,-0.92
2023-01-29T02:36:09.379Z,-0.77
2023-01-29T02:38:18.833Z,-0.65
2023-01-29T02:40:30.142Z,-0.71
2023-01-29T02:42:37.798Z,-0.74
2023-01-29T02:44:44.717Z,-0.72
2023-01-29T02:46:55.857Z,-0.72
2023-01-29T02:49:03.137Z,-0.62
2023-01-29T02:51:11.509Z,-0.69
2023-01-29T02:53:17.361Z,-0.58
2023-01-29T02:55:25.102Z,-0.61
2023-01-29T02:57:31.536Z,-0.59
2023-01-29T02:59:40.360Z,-0.70
2023-01-29T03:01:49.195Z,-0.85
2023-01-29T03:03:56.086Z,-0.73
2023-01-29T03:06:06.343Z,-0.61
2023-01-29T03:08:12.209Z,-0.62
2023-01-29T03:10:19.665Z,-0.54
2023-01-29T03:12:34.061Z,-0.58
2023-01-29T03:14:53.852Z,-0.47
2023-01-29T03:16:58.176Z,-0.40
2023-01-29T03:19:07.246Z,-0.39
2023-01-29T03:21:29.882Z,-0.45
2023-01-29T03:23:54.101Z,-0.59
2023-01-29T03:26:17.706Z,-0.54
2023-01-29T03:28:40.794Z,-0.56
2023-01-29T03:31:06.165Z,-0.66
2023-01-29T03:33:13.269Z,-0.70
2023-01-29T03:35:33.435Z,-0.67
2023-01-29T03:37:39.768Z,-0.64
2023-01-29T03:39:43.149Z,-0.67
2023-01-29T03:41:54.340Z,-0.78
2023-01-29T03:44:10.630Z,-0.62
2023-01-29T03:46:21.302Z,-0.79
2023-01-29T03:48:32.510Z,-0.71
2023-01-29T03:50:41.600Z,-0.79
2023-01-29T03:52:50.379Z,-0.88
2023-01-29T03:55:01.108Z,-0.65
2023-01-29T03:57:15.409Z,-0.63
2023-01-29T03:59:26.984Z,-0.71
2023-01-29T04:01:34.535Z,-0.59
2023-01-29T04:03:42.448Z,-0.67
2023-01-29T04:05:50.194Z,-0.84
2023-01-29T04:07:58.753Z,-0.77
2023-01-29T04:10:05.095Z,-0.79
2023-01-29T04:12:10.543Z,-0.82
2023-01-29T04:14:14.858Z,-0.89
2023-01-29T04:16:21.687Z,-0.98
2023-01-29T04:18:25.273Z,-0.98
2023-01-29T04:20:29.989Z,-0.83
2023-01-29T04:22:35.139Z,-0.97
2023-01-29T04:24:38.607Z,-0.86
2023-01-29T04:26:56.557Z,-0.95
2023-01-29T04:29:22.835Z,-1.01
2023-01-29T04:31:31.442Z,-0.89
2023-01-29T04:33:41.085Z,-1.00
2023-01-29T04:36:02.082Z,-0.87
2023-01-29T04:38:12.580Z,-0.72
2023-01-29T04:40:21.762Z,-0.87
2023-01-29T04:42:30.541Z,-0.91
2023-01-29T04:44:39.979Z,-0.92
2023-01-29T04:46:49.895Z,-0.93
2023-01-29T04:49:05.086Z,-0.97
2023-01-29T04:51:16.665Z,-1.01
2023-01-29T04:53:27.442Z,-1.09
2023-01-29T04:55:37.003Z,-0.93
2023-01-29T04:57:48.240Z,-0.78
2023-01-29T04:59:58.413Z,-0.93
2023-01-29T05:02:02.937Z,-0.86
2023-01-29T05:04:10.993Z,-0.89
2023-01-29T05:06:16.877Z,-0.96
2023-01-29T05:08:22.514Z,-0.87
2023-01-29T05:10:27.443Z,-0.93
2023-01-29T05:12:31.453Z,-1.08
2023-01-29T05:14:36.073Z,-1.03
2023-01-29T05:16:43.885Z,-0.98
2023-01-29T05:18:47.025Z,-0.86
2023-01-29T05:20:51.122Z,-0.88
2023-01-29T05:22:55.820Z,-0.88
2023-01-29T05:24:58.616Z,-1.06
2023-01-29T05:27:19.041Z,-1.04
2023-01-29T05:29:22.203Z,-1.08
2023-01-29T05:31:24.978Z,-0.95
2023-01-29T05:33:29.345Z,-0.94
2023-01-29T05:35:32.358Z,-1.13
2023-01-29T05:37:34.970Z,-1.12
2023-01-29T05:39:39.026Z,-1.15
2023-01-29T05:41:41.747Z,-1.11
2023-01-29T05:43:44.420Z,-1.13
2023-01-29T05:45:54.038Z,-1.11
2023-01-29T05:47:57.967Z,-1.15
2023-01-29T05:50:00.603Z,-1.16
2023-01-29T05:52:03.272Z,-1.11
2023-01-29T05:54:06.251Z,-0.96
2023-01-29T05:56:10.368Z,-0.98
2023-01-29T05:58:13.046Z,-1.07
2023-01-29T06:00:17.245Z,-1.13
2023-01-29T06:02:20.986Z,-1.08
2023-01-29T06:04:23.613Z,-1.11
2023-01-29T06:06:26.290Z,-0.97
2023-01-29T06:08:28.905Z,-0.91
2023-01-29T06:10:31.486Z,-0.88
2023-01-29T06:12:35.462Z,-0.96
2023-01-29T06:14:38.129Z,-1.19
2023-01-29T06:16:40.733Z,-1.10
2023-01-29T06:18:43.779Z,-0.97
2023-01-29T06:20:46.449Z,-1.13
2023-01-29T06:22:49.076Z,-1.13
2023-01-29T06:24:51.661Z,-1.11
2023-01-29T06:26:54.301Z,-0.79
2023-01-29T06:28:58.248Z,-0.79
2023-01-29T06:31:19.914Z,-0.86
2023-01-29T06:33:25.310Z,-1.22
2023-01-29T06:35:28.772Z,-1.17
2023-01-29T06:37:31.389Z,-1.02
2023-01-29T06:39:34.029Z,-1.06
2023-01-29T06:41:36.869Z,-1.10
2023-01-29T06:43:39.802Z,-1.17
2023-01-29T06:45:49.449Z,-1.11
2023-01-29T06:47:52.593Z,-1.09
2023-01-29T06:49:55.234Z,-0.99
2023-01-29T06:51:58.243Z,-0.84
2023-01-29T06:54:01.030Z,-0.98
2023-01-29T06:56:03.737Z,-0.79
2023-01-29T06:58:07.986Z,-0.88
2023-01-29T07:00:12.080Z,-0.97
2023-01-29T07:02:16.577Z,-1.08
2023-01-29T07:04:19.301Z,-1.06
2023-01-29T07:06:22.306Z,-1.01
2023-01-29T07:08:24.931Z,-0.98
2023-01-29T07:10:27.547Z,-0.86
2023-01-29T07:12:30.170Z,-0.94
2023-01-29T07:14:32.783Z,-0.87
2023-01-29T07:16:35.512Z,-0.73
2023-01-29T07:18:39.543Z,-0.75
2023-01-29T07:20:43.663Z,-0.73
2023-01-29T07:22:46.299Z,-1.04
2023-01-29T07:24:48.965Z,-0.97
2023-01-29T07:26:51.587Z,-1.26
2023-01-29T07:28:54.176Z,-1.22
2023-01-29T07:30:58.007Z,-0.85
2023-01-29T07:33:03.806Z,-0.96
2023-01-29T07:35:09.962Z,-1.09
2023-01-29T07:37:12.642Z,-1.03
2023-01-29T07:39:15.308Z,-1.10
2023-01-29T07:41:18.283Z,-1.00
2023-01-29T07:43:21.106Z,-0.88
2023-01-29T07:45:23.715Z,-0.90
2023-01-29T07:47:26.417Z,-0.69
2023-01-29T07:49:28.977Z,-0.73
2023-01-29T07:51:33.042Z,-0.72
2023-01-29T07:53:35.810Z,-1.00
2023-01-29T07:55:38.467Z,-1.13
2023-01-29T07:57:41.075Z,-1.17
2023-01-29T07:59:43.745Z,-1.09
2023-01-29T08:01:46.375Z,-0.95
2023-01-29T08:03:50.584Z,-0.84
2023-01-29T08:05:54.009Z,-0.69
2023-01-29T08:08:06.607Z,-0.62
2023-01-29T08:10:11.011Z,-0.55
2023-01-29T08:12:13.635Z,-0.47
2023-01-29T08:14:16.288Z,-0.72
2023-01-29T08:16:19.027Z,-0.81
2023-01-29T08:18:21.627Z,-0.75
2023-01-29T08:20:24.523Z,-0.56
2023-01-29T08:22:27.241Z,-0.52
2023-01-29T08:24:41.598Z,-0.60
2023-01-29T08:26:53.815Z,-0.52
2023-01-29T08:28:56.455Z,-0.56
2023-01-29T08:30:59.215Z,-0.56
2023-01-29T08:33:02.483Z,-0.63
2023-01-29T08:35:05.660Z,-0.52
2023-01-29T08:37:08.448Z,-0.36
2023-01-29T08:39:11.135Z,-0.29
2023-01-29T08:41:15.105Z,-0.48
2023-01-29T08:43:17.701Z,-0.28
2023-01-29T08:45:20.390Z,-0.46
2023-01-29T08:47:23.047Z,-0.45
2023-01-29T08:49:25.766Z,-0.27
2023-01-29T08:51:28.404Z,-0.16
2023-01-29T08:53:31.202Z,-0.50
2023-01-29T08:55:33.945Z,-0.42
2023-01-29T08:57:38.212Z,-0.44
2023-01-29T08:59:40.844Z,-0.40
2023-01-29T09:01:43.480Z,-0.06
2023-01-29T09:03:46.816Z,-0.32
2023-01-29T09:05:49.634Z,-0.01
2023-01-29T09:07:54.185Z,-0.04
2023-01-29T09:09:56.980Z,0.16
2023-01-29T09:11:59.582Z,-0.25
2023-01-29T09:14:03.553Z,-0.30
2023-01-29T09:16:07.002Z,-0.20
2023-01-29T09:18:09.650Z,-0.17
2023-01-29T09:20:12.926Z,-0.08
2023-01-29T09:22:15.670Z,0.31
2023-01-29T09:24:18.356Z,0.41
2023-01-29T09:26:21.038Z,0.35
2023-01-29T09:28:23.840Z,0.30
2023-01-29T09:30:27.829Z,0.38
2023-01-29T09:34:53.995Z,-0.38
2023-01-29T09:36:56.634Z,-0.20
2023-01-29T09:38:59.319Z,0.04
2023-01-29T09:41:09.736Z,-0.16
2023-01-29T09:43:17.724Z,0.20
2023-01-29T09:45:25.042Z,0.07
2023-01-29T09:47:30.858Z,-0.07
2023-01-29T09:49:37.773Z,0.20
2023-01-29T09:51:44.323Z,0.02
2023-01-29T09:53:52.943Z,-0.42
2023-01-29T09:56:02.897Z,-0.06
2023-01-29T09:58:13.033Z,0.09
2023-01-29T10:00:19.260Z,-0.09
2023-01-29T10:02:53.436Z,-0.30
2023-01-29T10:05:21.021Z,0.54
2023-01-29T10:07:50.308Z,-0.14
2023-01-29T10:10:07.625Z,0.11
2023-01-29T10:12:25.675Z,0.04
2023-01-29T10:14:37.989Z,0.36
2023-01-29T10:16:53.696Z,0.11
2023-01-29T10:19:17.185Z,0.28
2023-01-29T10:21:36.621Z,0.27
2023-01-29T10:23:46.924Z,0.04
2023-01-29T10:25:49.988Z,0.12
2023-01-29T10:27:54.976Z,0.14
2023-01-29T10:29:58.079Z,0.42
2023-01-29T10:32:05.828Z,0.46
2023-01-29T10:34:13.656Z,0.57
2023-01-29T10:36:21.943Z,0.40
2023-01-29T10:38:32.725Z,0.35
2023-01-29T10:40:40.940Z,0.26
2023-01-29T10:42:49.944Z,0.17
2023-01-29T10:45:10.075Z,0.20
2023-01-29T10:47:32.481Z,0.50
2023-01-29T10:50:06.330Z,0.95
2023-01-29T10:52:26.032Z,0.61
2023-01-29T10:54:42.742Z,0.38
2023-01-29T10:56:59.573Z,0.80
2023-01-29T10:59:06.124Z,0.91
2023-01-29T11:01:09.528Z,0.59
2023-01-29T11:03:27.400Z,0.53
2023-01-29T11:05:36.285Z,0.87
2023-01-29T11:07:38.970Z,0.92
2023-01-29T11:09:46.588Z,0.45
2023-01-29T11:11:53.850Z,0.47
2023-01-29T11:14:00.086Z,1.25
2023-01-29T11:16:05.002Z,1.19
2023-01-29T11:18:13.535Z,0.68
2023-01-29T11:20:28.670Z,0.63
2023-01-29T11:22:32.036Z,0.53
2023-01-29T11:24:34.675Z,0.43
2023-01-29T11:26:41.463Z,0.31
2023-01-29T11:28:45.985Z,0.71
2023-01-29T11:30:48.831Z,0.57
2023-01-29T11:32:58.927Z,0.88
2023-01-29T11:35:04.637Z,1.14
2023-01-29T11:37:17.765Z,1.12
2023-01-29T11:39:21.995Z,1.69
2023-01-29T11:41:25.435Z,1.76
2023-01-29T11:43:33.469Z,1.88
2023-01-29T11:45:40.633Z,1.21
2023-01-29T11:47:43.419Z,1.40
2023-01-29T11:49:49.243Z,1.07
2023-01-29T11:51:56.230Z,1.21
2023-01-29T11:53:59.977Z,1.49
2023-01-29T11:56:06.844Z,1.37
2023-01-29T11:58:16.799Z,1.10
2023-01-29T12:00:23.990Z,1.09
2023-01-29T12:02:37.079Z,1.08
2023-01-29T12:04:40.316Z,1.61
2023-01-29T12:06:48.795Z,1.42
2023-01-29T12:08:57.897Z,0.98
2023-01-29T12:11:10.032Z,1.13
2023-01-29T12:13:26.584Z,1.06
2023-01-29T12:15:30.679Z,0.98
2023-01-29T12:17:37.816Z,0.95
2023-01-29T12:19:44.748Z,1.15
2023-01-29T12:21:50.522Z,1.48
2023-01-29T12:23:58.488Z,1.54
2023-01-29T12:26:05.800Z,1.04
2023-01-29T12:28:20.340Z,0.92
2023-01-29T12:30:29.511Z,1.28
2023-01-29T12:32:44.117Z,1.05
2023-01-29T12:34:52.044Z,1.25
2023-01-29T12:37:00.658Z,1.21
2023-01-29T12:39:03.461Z,1.15
2023-01-29T12:41:10.144Z,1.11
2023-01-29T12:43:17.053Z,1.12
2023-01-29T12:45:21.930Z,1.49
2023-01-29T12:47:31.807Z,1.15
2023-01-29T12:49:40.060Z,1.10
2023-01-29T12:51:51.720Z,1.07
2023-01-29T12:53:58.655Z,1.41
2023-01-29T12:56:04.030Z,1.15
2023-01-29T12:58:13.705Z,1.37
2023-01-29T13:00:22.475Z,1.73
2023-01-29T13:02:33.760Z,1.92
2023-01-29T13:04:41.123Z,1.97
2023-01-29T13:06:49.149Z,2.19
2023-01-29T13:08:55.465Z,2.32
2023-01-29T13:11:01.897Z,2.02
2023-01-29T13:13:12.379Z,1.99
2023-01-29T13:15:25.544Z,2.83
2023-01-29T13:17:35.878Z,2.79
2023-01-29T13:19:45.287Z,2.05
2023-01-29T13:21:48.769Z,1.90
2023-01-29T13:23:54.450Z,1.95
2023-01-29T13:25:58.386Z,1.74
2023-01-29T13:28:01.541Z,1.98
2023-01-29T13:30:05.532Z,2.06
2023-01-29T13:32:10.371Z,1.74
2023-01-29T13:34:16.341Z,1.79
2023-01-29T13:36:26.814Z,1.88
2023-01-29T13:38:33.172Z,2.16
2023-01-29T13:40:35.870Z,1.99
2023-01-29T13:42:43.876Z,2.33
2023-01-29T13:44:50.438Z,2.56
2023-01-29T13:46:57.969Z,1.91
2023-01-29T13:49:04.877Z,2.12
2023-01-29T13:51:15.411Z,2.38
2023-01-29T13:53:25.365Z,2.26
2023-01-29T13:55:32.309Z,2.34
2023-01-29T13:57:48.510Z,2.26
2023-01-29T13:59:53.994Z,2.31
2023-01-29T14:02:20.074Z,2.40
2023-01-29T14:04:25.570Z,2.47
2023-01-29T14:06:49.948Z,2.54
2023-01-29T14:08:53.958Z,2.45
2023-01-29T14:11:26.921Z,2.17
2023-01-29T14:13:35.801Z,2.19
2023-01-29T14:15:40.312Z,2.21
2023-01-29T14:17:55.871Z,2.22
2023-01-29T14:20:03.429Z,1.93
2023-01-29T14:22:06.563Z,2.11
2023-01-29T14:24:17.898Z,1.66
2023-01-29T14:26:32.418Z,1.81
2023-01-29T14:28:36.348Z,1.82
2023-01-29T14:30:40.851Z,2.16
2023-01-29T14:32:49.071Z,2.31
2023-01-29T14:34:56.704Z,2.26
2023-01-29T14:37:04.071Z,2.02
2023-01-29T14:39:08.179Z,2.00
2023-01-29T14:41:22.244Z,1.91
2023-01-29T14:43:25.286Z,1.98
2023-01-29T14:45:30.041Z,2.11
2023-01-29T14:47:55.539Z,2.16
2023-01-29T14:49:59.330Z,2.02
2023-01-29T14:52:02.828Z,1.93
2023-01-29T14:54:15.319Z,1.60
2023-01-29T14:56:27.277Z,1.67
2023-01-29T14:58:38.094Z,1.61
2023-01-29T15:00:44.478Z,1.51
2023-01-29T15:02:48.438Z,1.53
2023-01-29T15:04:55.439Z,1.61
2023-01-29T15:07:01.916Z,1.37
2023-01-29T15:09:13.590Z,1.60
2023-01-29T15:11:35.831Z,1.39
2023-01-29T15:13:47.095Z,1.53
2023-01-29T15:15:55.099Z,1.32
2023-01-29T15:18:02.808Z,1.21
2023-01-29T15:20:28.240Z,1.21
2023-01-29T15:22:32.826Z,1.40
2023-01-29T15:24:36.059Z,1.55
2023-01-29T15:26:43.606Z,1.49
2023-01-29T15:28:51.855Z,1.47
2023-01-29T15:30:59.246Z,1.54
2023-01-29T15:33:03.563Z,1.47
2023-01-29T15:35:10.930Z,1.43
2023-01-29T15:37:27.741Z,1.45
2023-01-29T15:39:31.612Z,1.36
2023-01-29T15:41:34.261Z,1.12
2023-01-29T15:43:44.872Z,1.22
2023-01-29T15:45:49.257Z,1.17
2023-01-29T15:47:53.670Z,1.04
2023-01-29T15:49:57.317Z,1.11
2023-01-29T15:52:04.481Z,0.93
2023-01-29T15:54:15.685Z,0.96
2023-01-29T15:56:20.973Z,0.97
2023-01-29T15:58:29.095Z,0.94
2023-01-29T16:00:33.424Z,0.88
2023-01-29T16:02:41.122Z,0.92
2023-01-29T16:04:44.185Z,0.93
2023-01-29T16:06:48.310Z,0.86
2023-01-29T16:08:54.652Z,0.74
2023-01-29T16:11:00.180Z,0.73
2023-01-29T16:13:04.241Z,0.62
2023-01-29T16:15:14.215Z,0.60
2023-01-29T16:17:26.959Z,0.64
2023-01-29T16:19:30.581Z,0.61
2023-01-29T16:21:37.455Z,0.71
2023-01-29T16:23:44.570Z,0.51
2023-01-29T16:25:48.481Z,0.58
2023-01-29T16:27:52.510Z,0.56
2023-01-29T16:29:55.279Z,0.42
2023-01-29T16:32:01.881Z,0.44
2023-01-29T16:34:11.592Z,0.33
2023-01-29T16:36:18.634Z,0.34
2023-01-29T16:38:27.900Z,0.33
2023-01-29T16:40:33.306Z,0.38
2023-01-29T16:42:37.716Z,0.33
2023-01-29T16:44:41.411Z,0.28
2023-01-29T16:46:47.555Z,0.29
2023-01-29T16:48:50.398Z,0.23
2023-01-29T16:51:04.931Z,0.26
2023-01-29T16:53:13.369Z,0.21
2023-01-29T16:55:22.770Z,0.19
2023-01-29T16:57:29.827Z,0.12
2023-01-29T16:59:34.268Z,0.03
2023-01-29T17:01:37.566Z,0.03
2023-01-29T17:03:41.717Z,0.04
2023-01-29T17:05:45.322Z,0.05
2023-01-29T17:07:50.136Z,0.07
2023-01-29T17:09:57.314Z,0.13
2023-01-29T17:12:02.909Z,-0.01
2023-01-29T17:14:07.916Z,0.05
2023-01-29T17:16:23.375Z,-0.01
2023-01-29T17:18:26.540Z,0.04
2023-01-29T17:20:30.744Z,-0.09
2023-01-29T17:22:33.324Z,-0.10
2023-01-29T17:24:37.267Z,-0.12
2023-01-29T17:26:40.506Z,-0.17
2023-01-29T17:28:44.214Z,-0.10
2023-01-29T17:31:00.330Z,-0.24
2023-01-29T17:33:12.817Z,-0.16
2023-01-29T17:35:17.185Z,-0.27
2023-01-29T17:37:20.178Z,-0.29
2023-01-29T17:39:25.486Z,-0.26
2023-01-29T17:41:31.141Z,-0.30
2023-01-29T17:43:34.312Z,-0.29
2023-01-29T17:45:37.123Z,-0.38
2023-01-29T17:47:39.861Z,-0.31
2023-01-29T17:49:43.413Z,-0.46
2023-01-29T17:51:46.363Z,-0.44
2023-01-29T17:53:49.137Z,-0.46
2023-01-29T17:55:52.756Z,-0.45
2023-01-29T17:57:57.092Z,-0.51
2023-01-29T17:59:59.924Z,-0.48
2023-01-29T18:02:02.775Z,-0.52
2023-01-29T18:04:06.030Z,-0.50
2023-01-29T18:06:09.920Z,-0.59
2023-01-29T18:08:17.551Z,-0.52
2023-01-29T18:10:22.936Z,-0.65
2023-01-29T18:12:25.721Z,-0.71
2023-01-29T18:14:29.731Z,-0.65
2023-01-29T18:16:37.071Z,-0.65
2023-01-29T18:18:40.444Z,-0.66
2023-01-29T18:20:45.020Z,-0.71
2023-01-29T18:22:48.486Z,-0.65
2023-01-29T18:24:51.234Z,-0.62
2023-01-29T18:26:53.949Z,-0.80
2023-01-29T18:28:57.919Z,-0.69
2023-01-29T18:31:03.404Z,-0.64
2023-01-29T18:33:06.080Z,-0.70
2023-01-29T18:35:09.943Z,-0.75
2023-01-29T18:37:13.129Z,-0.75
2023-01-29T18:39:15.993Z,-0.71
2023-01-29T18:41:18.831Z,-0.73
2023-01-29T18:43:22.392Z,-0.87
2023-01-29T18:45:25.020Z,-0.85
2023-01-29T18:47:28.996Z,-0.88
2023-01-29T18:49:31.911Z,-0.89
2023-01-29T18:51:34.761Z,-0.89
2023-01-29T18:53:37.394Z,-0.95
2023-01-29T18:55:40.109Z,-0.93
2023-01-29T18:58:33.664Z,-0.89
2023-01-29T19:00:07.185Z,-0.80
2023-01-29T19:02:13.993Z,-0.78
2023-01-29T19:04:17.975Z,-0.86
2023-01-29T19:06:20.694Z,-0.86
2023-01-29T19:08:23.323Z,-0.83
2023-01-29T19:10:25.995Z,-0.81
2023-01-29T19:12:28.893Z,-0.89
2023-01-29T19:14:31.661Z,-0.94
2023-01-29T19:16:34.467Z,-0.88
2023-01-29T19:18:37.551Z,-0.91
2023-01-29T19:20:42.863Z,-0.91
2023-01-29T19:22:45.529Z,-0.82
2023-01-29T19:24:48.146Z,-0.89
2023-01-29T19:26:51.309Z,-0.89
2023-01-29T19:28:53.992Z,-0.91
2023-01-29T19:30:57.995Z,-0.94
2023-01-29T19:33:00.850Z,-0.91
2023-01-29T19:35:03.455Z,-0.79
2023-01-29T19:37:07.455Z,-0.84
2023-01-29T19:39:11.434Z,-0.87
2023-01-29T19:41:14.079Z,-0.82
2023-01-29T19:43:17.911Z,-0.79
2023-01-29T19:45:37.175Z,-0.84
2023-01-29T19:47:45.891Z,-0.97
2023-01-29T19:49:48.580Z,-1.08
2023-01-29T19:51:51.434Z,-0.93
2023-01-29T19:53:55.458Z,-1.04
2023-01-29T19:55:59.009Z,-1.09
2023-01-29T19:58:03.432Z,-1.14
2023-01-29T20:00:07.828Z,-1.16
2023-01-29T20:02:10.826Z,-1.13
2023-01-29T20:04:13.672Z,-1.06
2023-01-29T20:06:18.996Z,-1.08
2023-01-29T20:08:22.228Z,-1.06
2023-01-29T20:10:27.615Z,-1.08
2023-01-29T20:12:30.433Z,-1.11
2023-01-29T20:14:33.044Z,-1.16
2023-01-29T20:16:36.956Z,-1.27
2023-01-29T20:18:39.591Z,-1.25
2023-01-29T20:20:42.979Z,-1.27
2023-01-29T20:22:46.287Z,-1.23
2023-01-29T20:24:48.893Z,-1.21
2023-01-29T20:26:52.933Z,-1.18
2023-01-29T20:28:55.603Z,-1.17
2023-01-29T20:30:59.050Z,-1.17
2023-01-29T20:33:02.818Z,-1.23
2023-01-29T20:35:06.174Z,-1.22
2023-01-29T20:37:08.883Z,-1.23
2023-01-29T20:39:11.530Z,-1.30
2023-01-29T20:41:16.466Z,-1.30
2023-01-29T20:43:20.439Z,-1.32
2023-01-29T20:45:23.392Z,-1.31
2023-01-29T20:47:26.079Z,-1.40
2023-01-29T20:49:29.132Z,-1.43
2023-01-29T20:51:32.069Z,-1.46
2023-01-29T20:53:35.156Z,-1.49
2023-01-29T20:55:37.983Z,-1.41
2023-01-29T20:57:40.965Z,-1.51
2023-01-29T20:59:45.153Z,-1.47
2023-01-29T21:01:47.772Z,-1.53
2023-01-29T21:03:50.432Z,-1.55
2023-01-29T21:05:54.211Z,-1.54
2023-01-29T21:07:56.905Z,-1.64
2023-01-29T21:09:59.657Z,-1.74
2023-01-29T21:12:05.229Z,-1.79
2023-01-29T21:14:07.952Z,-1.75
2023-01-29T21:16:12.056Z,-1.79
2023-01-29T21:18:14.657Z,-1.79
2023-01-29T21:20:17.785Z,-1.74
2023-01-29T21:22:20.716Z,-1.70
2023-01-29T21:24:23.392Z,-1.65
2023-01-29T21:26:26.121Z,-1.64
2023-01-29T21:28:28.999Z,-1.54
2023-01-29T21:30:31.681Z,-1.60
2023-01-29T21:32:35.661Z,-1.60
2023-01-29T21:34:38.340Z,-1.60
2023-01-29T21:36:40.958Z,-1.57
2023-01-29T21:38:43.561Z,-1.61
2023-01-29T21:40:46.191Z,-1.57
2023-01-29T21:43:06.836Z,-1.61
2023-01-29T21:45:10.769Z,-1.53
2023-01-29T21:47:13.498Z,-1.49
2023-01-29T21:49:17.537Z,-1.59
2023-01-29T21:51:20.123Z,-1.56
2023-01-29T21:53:22.786Z,-1.56
2023-01-29T21:55:25.493Z,-1.61
2023-01-29T21:57:28.166Z,-1.63
2023-01-29T21:59:31.128Z,-1.60
2023-01-29T22:01:37.257Z,-1.60
2023-01-29T22:03:41.129Z,-1.63
2023-01-29T22:05:45.170Z,-1.73
2023-01-29T22:07:47.940Z,-1.72
2023-01-29T22:09:51.154Z,-1.58
2023-01-29T22:11:54.024Z,-1.64
2023-01-29T22:13:56.736Z,-1.67
2023-01-29T22:15:59.400Z,-1.66
2023-01-29T22:18:01.982Z,-1.71
2023-01-29T22:20:05.796Z,-1.72
2023-01-29T22:22:13.161Z,-1.74
2023-01-29T22:24:15.783Z,-1.74
2023-01-29T22:26:18.719Z,-1.64
2023-01-29T22:28:21.645Z,-1.58
2023-01-29T22:30:24.348Z,-1.71
2023-01-29T22:32:27.265Z,-1.62
2023-01-29T22:34:30.026Z,-1.53
2023-01-29T22:36:32.679Z,-1.63
2023-01-29T22:38:36.994Z,-1.65
2023-01-29T22:40:39.705Z,-1.74
2023-01-29T22:42:42.626Z,-1.74
2023-01-29T22:44:45.561Z,-1.70
2023-01-29T22:46:48.715Z,-1.83
2023-01-29T22:48:51.515Z,-1.76
2023-01-29T22:51:09.419Z,-1.84
2023-01-29T22:53:12.047Z,-1.83
2023-01-29T22:55:16.236Z,-1.76
2023-01-29T22:57:19.209Z,-1.76
2023-01-29T22:59:21.941Z,-1.84
2023-01-29T23:01:27.085Z,-1.84
2023-01-29T23:03:30.188Z,-1.88
2023-01-29T23:05:32.984Z,-1.92
2023-01-29T23:07:35.769Z,-1.95
2023-01-29T23:09:38.378Z,-1.97
2023-01-29T23:11:42.388Z,-2.09
2023-01-29T23:13:47.255Z,-2.09
2023-01-29T23:15:59.229Z,-2.05
2023-01-29T23:18:02.085Z,-2.14
2023-01-29T23:20:05.231Z,-2.12
2023-01-29T23:22:08.161Z,-2.12
2023-01-29T23:24:11.791Z,-2.11
2023-01-29T23:26:33.084Z,-2.05
2023-01-29T23:28:37.146Z,-2.12
2023-01-29T23:30:40.029Z,-2.03
2023-01-29T23:32:42.898Z,-1.99
2023-01-29T23:34:45.749Z,-2.00
2023-01-29T23:36:48.600Z,-2.12
2023-01-29T23:38:51.316Z,-2.04
2023-01-29T23:40:57.814Z,-2.08
2023-01-29T23:43:00.452Z,-2.00
2023-01-29T23:45:04.783Z,-1.99
2023-01-29T23:47:07.499Z,-1.90
2023-01-29T23:49:10.250Z,-2.08
2023-01-29T23:51:12.955Z,-2.20
2023-01-29T23:53:15.812Z,-2.11
2023-01-29T23:55:18.552Z,-2.10
2023-01-29T23:57:21.234Z,-2.16
2023-01-29T23:59:23.905Z,-2.12
